Latest Weather Observations for Tennant Creek

IDD60801

Issued at 12:31 pm CST Thursday 30 June 2016 (issued every 30 minutes, with the page automatically refreshed every 10 minutes)

About weather observations | Map of weather stations | Latest weather observations for NT | Other Formats
Station Details ID: 015135 Name: TENNANT CREEK AIRPORT Lat: -19.64 Lon: 134.18 Height: 375.7 m
Data from the previous 72 hours. | See also: Recent months at Tennant Creek
Date/Time
CST
Temp
°C
App
Temp
°C
Dew
Point
°C
Rel
Hum
%
Delta-T
°C
Wind Press
QNH
hPa
Press
MSL
hPa
Rain since
9am
mm
Dir  Spd
km/h
Gust
km/h
Spd
kts
Gust
kts
30/12:30pm 23.7 19.8 -1.7 18 11.4 ENE 9 17 5 9 1020.8 - 0.0
30/12:00pm 22.4 18.5 -1.7 20 10.7 E 9 15 5 8 1021.4 1020.4 0.0
30/11:30am 21.7 17.5 -1.2 21 10.2 E 11 15 6 8 1021.9 - 0.0
30/11:00am 20.3 15.8 -0.6 24 9.3 E 13 17 7 9 1022.4 - 0.0
30/10:30am 19.5 14.9 -0.7 25 8.9 ESE 13 20 7 11 1022.7 - 0.0
30/10:00am 18.7 13.8 -0.3 27 8.4 E 15 20 8 11 1022.9 - 0.0
30/09:30am 17.1 11.4 -0.4 30 7.6 ESE 19 24 10 13 1023.0 - 0.0
30/09:00am 15.0 9.9 0.5 37 6.3 ESE 17 24 9 13 1022.8 1021.8 0.0
30/08:30am 13.4 8.2 -0.1 39 5.7 ESE 17 24 9 13 1022.4 - 0.0
30/08:00am 12.3 7.1 -0.1 42 5.2 E 17 22 9 12 1021.7 - 0.0
30/07:30am 10.4 5.9 -0.4 47 4.4 ESE 13 17 7 9 1021.4 - 0.0
30/07:00am 10.8 6.3 -0.4 46 4.6 ESE 13 17 7 9 1021.1 - 0.0
30/06:30am 10.6 6.0 -0.7 45 4.6 ESE 13 15 7 8 1020.8 - 0.0
30/06:00am 11.3 6.7 -1.0 42 5.0 E 13 17 7 9 1020.2 1019.2 0.0
30/05:30am 11.2 6.2 -1.2 42 5.0 E 15 22 8 12 1020.1 - 0.0
30/05:00am 11.4 6.8 -1.2 41 5.1 E 13 20 7 11 1020.1 - 0.0
30/04:30am 12.5 7.0 -1.9 36 5.8 E 17 26 9 14 1019.7 - 0.0
30/04:00am 12.1 6.6 -1.8 38 5.6 E 17 20 9 11 1019.5 - 0.0
30/03:30am 12.1 7.0 -1.8 38 5.6 E 15 17 8 9 1019.7 - 0.0
30/03:00am 12.5 8.2 -1.9 36 5.8 E 11 15 6 8 1020.0 1019.0 0.0
30/02:30am 13.1 8.0 -2.0 35 6.1 E 15 20 8 11 1020.0 - 0.0
30/02:00am 12.8 7.3 -1.8 36 5.9 ENE 17 20 9 11 1020.3 - 0.0
30/01:30am 12.9 7.4 -1.9 36 6.0 E 17 22 9 12 1020.2 - 0.0
30/01:00am 12.5 8.2 -1.5 38 5.7 E 11 15 6 8 1020.7 - 0.0
30/12:30am 13.3 9.0 -1.6 35 6.1 E 11 13 6 7 1020.8 - 0.0
30/12:00am 14.1 9.4 -2.1 32 6.6 E 13 15 7 8 1021.0 1019.9 0.0
 
Date/Time
CST
Temp
°C
App
Temp
°C
Dew
Point
°C
Rel
Hum
%
Delta-T
°C
Wind Press
QNH
hPa
Press
MSL
hPa
Rain since
9am
mm
Dir  Spd
km/h
Gust
km/h
Spd
kts
Gust
kts
29/11:30pm 13.8 9.0 -2.3 32 6.5 ENE 13 17 7 9 1021.0 - 0.0
29/11:00pm 13.8 9.4 -2.3 32 6.5 E 11 15 6 8 1021.2 - 0.0
29/10:30pm 14.5 10.0 -2.9 30 7.0 E 11 15 6 8 1021.2 - 0.0
29/10:00pm 14.7 10.2 -2.9 29 7.1 E 11 13 6 7 1021.0 - 0.0
29/09:30pm 15.3 10.7 -3.8 26 7.6 E 11 13 6 7 1021.1 - 0.0
29/09:00pm 15.6 11.1 -3.2 27 7.6 E 11 13 6 7 1021.1 1020.0 0.0
29/08:30pm 16.4 12.8 -2.4 27 7.8 E 7 11 4 6 1020.8 - 0.0
29/08:00pm 17.4 13.2 -3.7 23 8.6 ESE 9 11 5 6 1020.7 - 0.0
29/07:30pm 18.1 14.0 -2.7 24 8.7 ESE 9 11 5 6 1020.0 - 0.0
29/07:00pm 19.5 15.4 -7.0 16 10.3 SE 7 9 4 5 1019.5 - 0.0
29/06:30pm 19.9 15.8 -6.4 16 10.4 ESE 7 9 4 5 1019.1 - 0.0
29/06:00pm 21.8 17.3 -7.2 13 11.5 ESE 9 11 5 6 1018.8 1017.7 0.0
29/05:30pm 23.3 18.7 -8.5 11 12.5 ESE 9 15 5 8 1018.7 - 0.0
29/05:00pm 23.8 18.3 -10.2 9 13.0 SE 13 20 7 11 1018.6 - 0.0
29/04:30pm 23.8 18.3 -9.5 10 12.9 SE 13 20 7 11 1018.4 - 0.0
29/04:00pm 23.6 18.7 -7.5 12 12.5 ESE 11 17 6 9 1018.5 - 0.0
29/03:30pm 23.9 19.4 -7.2 12 12.6 E 9 15 5 8 1018.7 - 0.0
29/03:00pm 23.6 18.9 -5.3 14 12.1 E 11 17 6 9 1018.9 1017.8 0.0
29/02:30pm 23.0 18.7 -4.4 15 11.6 SE 9 15 5 8 1019.1 - 0.0
29/02:00pm 22.4 18.3 -7.1 13 11.8 ENE 7 17 4 9 1019.4 - 0.0
29/01:30pm 21.8 17.5 -5.0 16 11.1 ESE 9 17 5 9 1019.9 - 0.0
29/01:00pm 21.2 16.8 -6.1 15 11.0 ENE 9 17 5 9 1020.7 - 0.0
29/12:30pm 19.9 15.1 -6.5 16 10.4 E 11 20 6 11 1021.4 - 0.0
29/12:00pm 19.5 14.2 -3.6 20 9.6 ENE 15 22 8 12 1022.0 1021.0 0.0
29/11:30am 18.4 13.7 -4.7 20 9.3 ENE 11 20 6 11 1022.5 - 0.0
29/11:00am 17.5 13.0 0.0 30 7.7 ENE 13 20 7 11 1022.8 - 0.0
29/10:30am 15.8 10.9 -0.2 33 6.9 E 15 22 8 12 1023.0 - 0.0
29/10:00am 14.9 9.4 0.3 37 6.3 E 19 24 10 13 1023.2 - 0.0
29/09:30am 13.8 8.2 0.2 39 5.8 E 19 28 10 15 1023.1 - 0.0
29/09:00am 12.8 7.3 0.3 42 5.3 E 19 28 10 15 1023.1 1022.1 0.0
29/08:30am 11.3 5.2 0.3 46 4.6 E 22 32 12 17 1023.0 - 0.0
29/08:00am 9.9 4.2 0.5 52 3.9 E 20 28 11 15 1022.9 - 0.0
29/07:30am 8.8 3.7 0.8 57 3.3 E 17 24 9 13 1022.5 - 0.0
29/07:00am 8.9 2.8 0.3 55 3.5 E 22 30 12 16 1022.2 - 0.0
29/06:30am 9.1 2.6 0.3 54 3.6 E 24 32 13 17 1022.0 - 0.0
29/06:00am 9.2 3.1 0.1 53 3.7 E 22 30 12 16 1021.7 1020.7 0.0
29/05:30am 9.3 2.8 0.6 54 3.6 E 24 33 13 18 1021.6 - 0.0
29/05:00am 9.5 3.0 0.2 52 3.8 E 24 32 13 17 1021.9 - 0.0
29/04:30am 9.6 3.1 0.4 52 3.8 E 24 30 13 16 1022.0 - 0.0
29/04:00am 9.5 4.0 0.5 53 3.7 E 19 26 10 14 1022.0 - 0.0
29/03:30am 9.7 4.6 0.8 54 3.7 E 17 26 9 14 1022.1 - 0.0
29/03:00am 10.3 4.6 0.4 50 4.1 E 20 28 11 15 1022.5 1021.5 0.0
29/02:30am 10.2 4.7 0.6 51 4.0 E 19 24 10 13 1022.6 - 0.0
29/02:00am 11.1 5.9 0.0 46 4.6 E 17 28 9 15 1022.7 - 0.0
29/01:30am 11.4 5.8 0.1 45 4.7 E 19 28 10 15 1022.9 - 0.0
29/01:00am 11.6 6.4 0.1 45 4.8 E 17 22 9 12 1022.9 - 0.0
29/12:30am 12.0 6.8 0.0 43 5.0 E 17 22 9 12 1022.9 - 0.0
29/12:00am 12.3 7.4 -0.2 42 5.2 E 15 20 8 11 1023.0 1022.0 0.0
 
Date/Time
CST
Temp
°C
App
Temp
°C
Dew
Point
°C
Rel
Hum
%
Delta-T
°C
Wind Press
QNH
hPa
Press
MSL
hPa
Rain since
9am
mm
Dir  Spd
km/h
Gust
km/h
Spd
kts
Gust
kts
28/11:30pm 12.8 8.0 0.0 41 5.4 E 15 22 8 12 1023.1 - 0.0
28/11:00pm 13.5 8.2 -0.6 38 5.9 E 17 26 9 14 1023.1 - 0.0
28/10:30pm 14.0 8.6 -1.2 35 6.3 E 17 26 9 14 1023.2 - 0.0
28/10:00pm 14.5 9.5 -1.4 33 6.6 E 15 22 8 12 1023.1 - 0.0
28/09:30pm 14.5 9.9 -1.4 33 6.6 E 13 17 7 9 1023.0 - 0.0
28/09:00pm 14.1 9.5 -1.0 35 6.3 E 13 17 7 9 1022.9 1021.9 0.0
28/08:30pm 14.7 10.1 -1.1 33 6.6 E 13 15 7 8 1022.9 - 0.0
28/08:00pm 15.3 10.6 -1.8 31 7.1 E 13 17 7 9 1022.5 - 0.0
28/07:30pm 16.5 11.4 -2.3 27 7.8 E 15 20 8 11 1022.2 - 0.0
28/07:00pm 17.5 11.9 -3.1 24 8.5 E 17 24 9 13 1021.7 - 0.0
28/06:30pm 18.2 13.4 -2.5 24 8.7 ESE 13 22 7 12 1021.2 - 0.0
28/06:00pm 19.3 13.8 -1.8 24 9.1 ESE 17 24 9 13 1020.8 1019.7 0.0
28/05:30pm 20.5 15.7 0.2 25 9.2 ESE 15 22 8 12 1020.5 - 0.0
28/05:00pm 21.0 15.6 1.5 27 9.1 E 19 30 10 16 1020.3 - 0.0
28/04:30pm 21.3 16.7 1.7 27 9.2 ESE 15 24 8 13 1020.2 - 0.0
28/04:00pm 21.1 16.5 1.7 27 9.1 ESE 15 24 8 13 1020.1 - 0.0
28/03:30pm 21.3 16.8 2.1 28 9.1 ESE 15 22 8 12 1020.2 - 0.0
28/03:00pm 20.4 15.9 2.1 29 8.6 E 15 26 8 14 1020.4 1019.4 0.0
28/02:30pm 20.7 16.2 2.0 29 8.8 ESE 15 24 8 13 1020.8 - 0.0
28/02:00pm 19.8 14.9 1.7 30 8.4 E 17 28 9 15 1021.0 - 0.0
28/01:30pm 19.3 13.8 2.1 31 8.0 E 20 28 11 15 1021.3 - 0.0
28/01:00pm 18.8 13.9 1.9 32 7.8 E 17 26 9 14 1021.9 - 0.0
28/12:30pm 18.2 12.7 1.6 33 7.6 ESE 20 32 11 17 1022.4 - 0.0
28/12:00pm 17.8 12.4 2.2 35 7.2 E 20 28 11 15 1023.0 1022.0 0.0
28/11:30am 16.5 11.2 2.0 37 6.6 E 19 28 10 15 1023.5 - 0.0
28/11:00am 15.3 9.1 2.2 41 5.9 ESE 24 32 13 17 1023.8 - 0.0
28/10:30am 14.8 8.3 2.4 43 5.6 E 26 33 14 18 1024.1 - 0.0
28/10:00am 13.0 6.9 2.7 49 4.6 E 24 33 13 18 1024.1 - 0.0
28/09:30am 12.1 5.6 2.6 52 4.2 E 26 39 14 21 1024.0 - 0.0
28/09:00am 11.5 4.4 3.5 58 3.6 E 30 43 16 23 1023.9 1022.9 0.0
28/08:39am 10.8 3.3 3.7 61 3.2 E 32 52 17 28 1023.6 - 0.0
28/08:30am 10.5 3.0 3.6 62 3.1 E 32 44 17 24 1023.5 - 0.0
28/08:19am 10.2 3.5 3.7 64 2.9 E 28 46 15 25 1023.3 - 0.0
28/08:00am 9.9 2.8 3.6 65 2.8 E 30 43 16 23 1023.1 - 0.0
28/07:30am 9.5 2.1 3.9 68 2.5 E 32 43 17 23 1022.7 - 0.0
28/07:00am 9.6 2.9 3.5 66 2.7 E 28 41 15 22 1022.3 - 0.0
28/06:31am 9.7 2.6 3.6 66 2.7 E 30 48 16 26 1022.0 - 0.0
28/06:30am 9.8 2.7 3.5 65 2.8 E 30 46 16 25 1022.0 - 0.0
28/06:25am 9.8 3.1 3.5 65 2.8 E 28 46 15 25 1021.9 - 0.0
28/06:00am 9.9 3.1 3.3 63 2.9 E 28 44 15 24 1021.6 1020.6 0.0
28/05:30am 10.0 3.3 3.5 64 2.9 E 28 41 15 22 1021.5 - 0.0
28/05:00am 10.2 3.5 3.5 63 3.0 E 28 39 15 21 1021.4 - 0.0
28/04:30am 10.6 3.9 3.4 61 3.2 E 28 43 15 23 1021.4 - 0.0
28/04:00am 10.9 4.1 3.3 59 3.4 E 28 44 15 24 1021.4 - 0.0
28/03:30am 11.2 4.5 3.4 58 3.5 E 28 41 15 22 1021.4 - 0.0
28/03:00am 11.5 4.3 3.2 56 3.7 E 30 44 16 24 1021.5 1020.5 0.0
28/02:46am 11.7 4.9 3.2 56 3.8 E 28 46 15 25 1021.7 - 0.0
28/02:30am 11.8 5.8 3.4 56 3.8 ESE 24 41 13 22 1021.8 - 0.0
28/02:00am 12.2 6.2 3.3 54 4.0 ESE 24 35 13 19 1022.2 - 0.0
28/01:30am 12.6 6.9 3.0 52 4.3 E 22 32 12 17 1022.4 - 0.0
28/01:00am 12.9 6.5 3.2 51 4.4 ESE 26 33 14 18 1022.4 - 0.0
28/12:30am 13.4 7.0 3.0 49 4.7 E 26 35 14 19 1022.5 - 0.0
28/12:00am 13.7 6.9 3.1 48 4.8 E 28 41 15 22 1022.4 1021.4 0.0
 
Date/Time
CST
Temp
°C
App
Temp
°C
Dew
Point
°C
Rel
Hum
%
Delta-T
°C
Wind Press
QNH
hPa
Press
MSL
hPa
Rain since
9am
mm
Dir  Spd
km/h
Gust
km/h
Spd
kts
Gust
kts
27/11:30pm 14.0 7.2 3.3 48 4.9 E 28 39 15 21 1022.4 - 0.0
27/11:00pm 14.5 8.0 2.9 45 5.3 E 26 39 14 21 1022.4 - 0.0
27/10:30pm 14.9 8.8 2.9 44 5.5 ESE 24 35 13 19 1022.2 - 0.0
27/10:00pm 15.3 9.2 2.6 42 5.8 E 24 35 13 19 1022.2 - 0.0
27/09:30pm 15.6 9.9 2.7 42 5.9 E 22 28 12 15 1022.1 - 0.0
27/09:00pm 16.0 10.9 3.0 41 6.0 E 19 28 10 15 1021.8 1020.8 0.0
27/08:30pm 16.4 11.7 3.0 40 6.2 E 17 26 9 14 1021.5 - 0.0
27/08:00pm 16.9 12.1 2.6 38 6.6 ESE 17 28 9 15 1021.2 - 0.0
27/07:30pm 17.4 12.3 3.1 38 6.7 E 19 26 10 14 1020.8 - 0.0
27/07:00pm 17.6 13.4 4.0 40 6.5 E 15 22 8 12 1020.3 - 0.0
27/06:30pm 18.3 14.2 4.2 39 6.8 E 15 22 8 12 1019.9 - 0.0
27/06:00pm 19.4 14.5 4.2 36 7.4 ESE 19 26 10 14 1019.5 1018.5 0.0
27/05:30pm 20.2 15.1 4.0 34 7.9 ESE 20 28 11 15 1019.2 - 0.0
27/05:00pm 20.7 15.2 4.2 33 8.1 ESE 22 32 12 17 1018.9 - 0.0
27/04:30pm 21.2 15.8 4.4 33 8.3 ESE 22 33 12 18 1018.5 - 0.0
27/04:00pm 21.2 15.8 4.4 33 8.3 ESE 22 32 12 17 1018.3 - 0.0
27/03:30pm 21.3 16.2 4.0 32 8.5 ESE 20 28 11 15 1018.2 - 0.0
27/03:00pm 20.6 14.8 4.4 34 8.0 E 24 30 13 16 1018.3 1017.2 0.0
27/02:30pm 20.8 15.3 4.1 33 8.2 E 22 35 12 19 1018.6 - 0.0
27/02:00pm 20.4 14.5 3.7 33 8.1 E 24 33 13 18 1018.9 - 0.0
27/01:30pm 19.9 13.9 3.5 34 7.9 ESE 24 32 13 17 1019.3 - 0.0
27/01:00pm 19.6 13.5 3.0 33 7.9 ESE 24 35 13 19 1019.9 - 0.0

Other Formats:

Comma delimited format used in spreadsheet applications
http://www.bom.gov.au/fwo/IDD60801/IDD60801.94238.axf

JavaScript Object Notation format (JSON) in row-major order
http://www.bom.gov.au/fwo/IDD60801/IDD60801.94238.json